Griffin, Texas
Current Conditions -  °F | °C
As of 4:35 AM on Saturday 25 Oct 2014 (Local Time) from KJSO Reporting Station
Clear Clear  
Wind Chill: 63°   Ceiling: Unl
Heat Index: 63°   Visibility: 10mi
Dew Point: 56°   Wind: 6mph
Humidity: 80%   Direction: 190°S
Pressure: 30.15"   Gusts: NA
Location:  32.0774°N, 95.1103°W
Report Text: KJSO 250935Z AUTO 19005KT 10SM CLR 17/13 A3015 RMK AO2 T01700135
Loading
Personal Weather Stations






























Interactive Weather Map
Tropical Storm Tracking
New forecast layout! Learn more

10-Day Weather Forecast

Advertisements
Track Severe Weather on mobile